Latest Weather Observations for Kalgoorlie-Boulder

IDW60801

Issued at 6:23 pm WST Monday 17 December 2018 (issued every 10 minutes, with the page automatically refreshed every 10 minutes)

About weather observations | Map of weather stations | Latest weather observations for WA | Other Formats
Station Details ID: 012038 Name: KALGOORLIE-BOULDER AIRPORT Lat: -30.78 Lon: 121.45 Height: 365.3 m
Data from the previous 72 hours. | See also: Recent months at Kalgoorlie-Boulder
Date/Time
WST
Temp
°C
App
Temp
°C
Dew
Point
°C
Rel
Hum
%
Delta-T
°C
Wind Press
QNH
hPa
Press
MSL
hPa
Rain since
9am
mm
Dir  Spd
km/h
Gust
km/h
Spd
kts
Gust
kts
17/06:00pm 18.7 15.9 13.1 70 3.2 S 20 28 11 15 1010.3 1008.4 0.0
17/05:30pm 18.5 15.5 13.6 73 2.8 SSW 22 35 12 19 1010.0 1008.0 0.0
17/05:00pm 19.0 15.1 13.2 69 3.3 SSW 26 37 14 20 1009.4 1007.4 0.0
17/04:30pm 19.5 15.9 13.2 67 3.6 S 24 33 13 18 1009.1 1007.1 0.0
17/04:00pm 19.0 16.5 14.1 73 2.9 SSW 20 30 11 16 1008.9 1006.9 0.0
17/03:30pm 18.5 16.9 15.0 80 2.1 S 17 30 9 16 1008.9 1006.9 0.0
17/03:00pm 19.6 15.9 14.0 70 3.3 S 26 35 14 19 1008.6 1006.7 0.0
17/02:30pm 20.4 16.5 13.4 64 4.1 S 26 37 14 20 1008.4 1006.5 0.0
17/02:00pm 19.8 17.0 14.2 70 3.3 SSE 22 32 12 17 1008.1 1006.2 0.0
17/01:30pm 18.2 13.5 14.3 78 2.3 S 32 44 17 24 1008.0 1006.1 0.0
17/01:00pm 20.9 18.4 13.4 62 4.4 SSE 19 28 10 15 1007.7 1005.7 0.0
17/12:30pm 20.3 17.8 13.5 65 4.0 SSE 19 24 10 13 1007.7 1005.7 0.0
17/12:00pm 19.1 16.6 13.5 70 3.3 S 19 28 10 15 1007.8 1005.9 0.0
17/11:30am 18.5 15.8 13.6 73 2.8 S 20 28 11 15 1007.9 1006.0 0.0
17/11:00am 17.9 15.6 14.0 78 2.3 S 19 24 10 13 1008.2 1006.3 0.0
17/10:30am 17.3 14.9 14.4 83 1.7 S 20 30 11 16 1008.0 1006.1 0.0
17/10:09am 17.4 14.6 14.3 82 1.8 S 22 33 12 18 1007.9 1006.0 0.0
17/10:00am 17.3 14.3 14.8 85 1.5 SSW 24 35 13 19 1007.9 1006.0 0.0
17/09:30am 16.9 14.7 15.9 94 0.6 S 22 30 12 16 1008.0 1006.1 0.0
17/09:26am 16.8 14.5 15.8 94 0.6 S 22 30 12 16 1008.0 1006.1 0.0
17/09:00am 16.5 14.9 16.0 97 0.3 SSW 19 28 10 15 1008.3 1006.4 0.2
17/08:37am 16.0 14.1 15.2 95 0.5 S 19 24 10 13 1008.3 1006.4 0.0
17/08:30am 16.2 14.1 15.1 93 0.6 S 20 30 11 16 1008.1 1006.2 0.0
17/08:15am 16.6 13.5 14.4 87 1.3 S 24 33 13 18 1008.0 1006.1 0.0
17/08:00am 17.5 14.1 13.8 79 2.1 SSE 24 37 13 20 1007.6 1005.6 0.0
17/07:30am 16.5 14.2 14.7 89 1.1 SSE 20 32 11 17 1007.4 1005.4 0.0
17/07:00am 16.7 14.2 14.2 85 1.5 SSE 20 35 11 19 1007.1 1005.1 0.0
17/06:52am 16.4 14.1 14.2 87 1.3 SSE 19 28 10 15 1007.1 1005.1 0.0
17/06:49am 16.5 14.3 14.5 88 1.2 SSE 19 28 10 15 1007.0 1005.0 0.0
17/06:39am 16.2 13.7 14.2 88 1.2 SSE 20 30 11 16 1007.1 1005.1 0.0
17/06:30am 15.7 13.4 14.2 91 0.9 SSE 19 28 10 15 1007.3 1005.3 0.0
17/06:24am 15.8 13.7 14.7 93 0.6 S 19 24 10 13 1006.8 1004.8 0.0
17/06:00am 15.9 13.4 14.1 89 1.0 SSE 20 32 11 17 1006.9 1004.9 0.0
17/05:46am 16.1 13.7 13.9 87 1.3 SSE 19 28 10 15 1007.1 1005.1 0.0
17/05:44am 16.1 13.7 13.9 87 1.3 SSE 19 28 10 15 1007.2 1005.2 0.0
17/05:30am 16.2 13.6 13.9 86 1.3 SSE 20 28 11 15 1006.9 1004.9 0.0
17/05:24am 16.4 14.0 13.9 85 1.4 SSE 19 26 10 14 1006.4 1004.4 0.0
17/05:00am 16.9 14.2 13.4 80 2.0 SSE 20 33 11 18 1006.1 1004.1 0.0
17/04:30am 17.4 14.6 13.1 76 2.5 SSE 20 28 11 15 1005.5 1003.6 0.0
17/04:00am 17.4 14.6 13.1 76 2.5 SSE 20 33 11 18 1004.7 1002.7 0.0
17/03:30am 17.5 13.9 13.2 76 2.5 SSE 24 33 13 18 1004.2 1002.2 0.0
17/03:00am 17.4 14.2 13.1 76 2.5 SSE 22 35 12 19 1003.5 1001.5 0.0
17/02:30am 17.5 14.0 13.4 77 2.4 SE 24 35 13 19 1003.3 1001.3 0.0
17/02:00am 17.7 13.8 13.4 76 2.5 SE 26 41 14 22 1003.3 1001.3 0.0
17/01:30am 17.8 14.3 13.5 76 2.5 SSE 24 37 13 20 1001.9 999.9 0.0
17/01:00am 18.7 14.4 13.3 71 3.1 SE 28 43 15 23 1003.3 1001.3 0.0
17/12:30am 19.4 15.6 13.6 69 3.4 SE 26 41 14 22 1003.2 1001.2 0.0
17/12:00am 20.0 16.6 13.7 67 3.7 SE 24 35 13 19 1003.0 1001.0 0.0
 
Date/Time
WST
Temp
°C
App
Temp
°C
Dew
Point
°C
Rel
Hum
%
Delta-T
°C
Wind Press
QNH
hPa
Press
MSL
hPa
Rain since
9am
mm
Dir  Spd
km/h
Gust
km/h
Spd
kts
Gust
kts
16/11:30pm 20.8 16.7 13.7 64 4.2 SE 28 39 15 21 1003.1 1001.1 0.0
16/11:00pm 21.8 18.4 14.7 64 4.3 SE 26 37 14 20 1003.2 1001.2 0.0
16/10:30pm 22.4 18.7 15.0 63 4.5 SE 28 39 15 21 1003.0 1001.0 0.0
16/10:00pm 23.8 20.0 14.8 57 5.5 SE 28 41 15 22 1002.7 1000.7 0.0
16/09:30pm 25.5 21.8 14.9 52 6.5 SE 28 37 15 20 1002.2 1000.2 0.0
16/09:00pm 27.7 23.8 13.3 41 8.7 SE 26 37 14 20 1001.5 999.5 0.0
16/08:40pm 29.3 25.6 11.4 33 10.5 SE 22 44 12 24 1001.0 999.0 0.0
16/08:30pm 30.7 27.5 10.1 28 11.9 ESE 17 20 9 11 1000.7 998.7 0.0
16/08:00pm 31.2 28.2 9.4 26 12.5 E 15 19 8 10 1000.4 998.3 0.0
16/07:30pm 31.3 28.4 9.5 26 12.5 ESE 15 24 8 13 999.9 997.9 0.0
16/07:00pm 31.7 28.3 9.3 25 12.9 SE 17 22 9 12 999.7 997.7 0.0
16/06:30pm 31.9 30.7 8.2 23 13.3 SSW 4 9 2 5 999.3 997.3 0.0
16/06:00pm 32.4 31.9 8.0 22 13.8 CALM 0 4 0 2 999.0 997.0 0.0
16/05:30pm 32.9 30.7 7.7 21 14.1 E 9 15 5 8 998.8 996.8 0.0
16/05:00pm 33.5 32.5 7.5 20 14.7 ESE 2 7 1 4 998.7 996.7 0.0
16/04:30pm 33.7 31.6 8.3 21 14.4 S 9 15 5 8 998.7 996.7 0.0
16/04:00pm 33.9 31.5 8.5 21 14.6 SW 11 22 6 12 998.8 996.8 0.0
16/03:30pm 34.1 30.8 9.4 22 14.3 ESE 17 26 9 14 999.1 997.1 0.0
16/03:00pm 33.1 30.3 8.5 22 14.1 SE 13 20 7 11 999.5 997.5 0.0
16/02:30pm 32.3 28.9 9.2 24 13.2 ESE 17 32 9 17 1000.0 998.0 0.0
16/02:00pm 32.7 29.5 10.1 25 13.2 E 17 24 9 13 1000.5 998.5 0.0
16/01:30pm 31.8 30.0 9.3 25 12.9 NE 9 17 5 9 1000.9 998.9 0.0
16/01:00pm 31.4 29.0 10.2 27 12.3 SE 13 22 7 12 1001.2 999.2 0.0
16/12:30pm 30.3 27.8 9.8 28 11.8 NE 13 20 7 11 1001.8 999.8 0.0
16/12:00pm 30.1 27.7 10.1 29 11.6 NE 13 20 7 11 1002.0 1000.0 0.0
16/11:30am 29.1 25.9 9.8 30 11.0 ESE 17 26 9 14 1002.5 1000.5 0.0
16/11:00am 28.1 25.5 9.4 31 10.6 ENE 13 19 7 10 1003.0 1001.0 0.0
16/10:30am 27.0 23.8 9.8 34 9.7 ESE 17 24 9 13 1003.3 1001.3 0.0
16/10:00am 27.5 24.5 10.7 35 9.7 E 17 24 9 13 1003.5 1001.5 0.0
16/09:30am 25.3 21.9 10.4 39 8.4 E 19 30 10 16 1003.7 1001.7 0.0
16/09:00am 24.3 19.7 10.9 43 7.6 E 26 33 14 18 1003.8 1001.8 0.0
16/08:30am 23.0 18.2 11.7 49 6.5 E 28 35 15 19 1004.1 1002.1 0.0
16/08:00am 21.4 15.7 11.1 52 5.8 E 32 41 17 22 1004.4 1002.4 0.0
16/07:30am 20.9 15.4 11.8 56 5.2 ESE 32 41 17 22 1004.5 1002.5 0.0
16/07:00am 19.8 14.6 11.6 59 4.6 ESE 30 41 16 22 1004.8 1002.8 0.0
16/06:30am 19.2 13.9 11.3 60 4.4 ESE 30 39 16 21 1004.8 1002.8 0.0
16/06:00am 18.9 13.6 11.2 61 4.3 ESE 30 39 16 21 1004.7 1002.7 0.0
16/05:30am 18.6 14.0 10.9 61 4.2 ESE 26 35 14 19 1004.6 1002.6 0.0
16/05:00am 18.5 14.8 10.1 58 4.6 SE 20 26 11 14 1003.9 1001.9 0.0
16/04:30am 19.7 14.6 9.3 51 5.6 ESE 26 37 14 20 1003.5 1001.5 0.0
16/04:00am 20.5 15.4 7.5 43 6.8 ESE 24 30 13 16 1003.4 1001.4 0.0
16/03:30am 21.1 15.9 3.3 31 8.6 ESE 20 28 11 15 1003.1 1001.1 0.0
16/03:00am 22.0 17.1 2.2 27 9.5 SE 17 22 9 12 1002.7 1000.7 0.0
16/02:30am 23.9 16.7 0.9 22 10.9 E 28 41 15 22 1002.4 1000.4 0.0
16/02:00am 24.1 17.8 1.7 23 10.8 E 24 35 13 19 1002.3 1000.3 0.0
16/01:30am 24.4 17.9 2.5 24 10.7 E 26 35 14 19 1002.3 1000.3 0.0
16/01:00am 24.8 18.8 3.5 25 10.7 E 24 33 13 18 1002.3 1000.3 0.0
16/12:30am 25.3 19.7 3.3 24 11.0 E 22 32 12 17 1002.6 1000.6 0.0
16/12:00am 26.0 19.5 2.7 22 11.6 E 26 33 14 18 1002.6 1000.6 0.0
 
Date/Time
WST
Temp
°C
App
Temp
°C
Dew
Point
°C
Rel
Hum
%
Delta-T
°C
Wind Press
QNH
hPa
Press
MSL
hPa
Rain since
9am
mm
Dir  Spd
km/h
Gust
km/h
Spd
kts
Gust
kts
15/11:30pm 26.6 20.5 2.5 21 12.0 E 24 32 13 17 1002.7 1000.7 0.0
15/11:00pm 27.3 21.0 1.7 19 12.6 E 24 35 13 19 1002.6 1000.6 0.0
15/10:30pm 28.1 21.4 1.6 18 13.1 ENE 26 41 14 22 1003.0 1001.0 0.0
15/10:00pm 28.8 22.1 1.3 17 13.6 ENE 26 37 14 20 1003.1 1001.1 0.0
15/09:30pm 29.2 22.8 0.8 16 13.9 E 24 33 13 18 1003.0 1001.0 0.0
15/09:00pm 29.3 23.4 1.7 17 13.8 E 22 33 12 18 1002.8 1000.8 0.0
15/08:30pm 29.7 23.3 1.2 16 14.1 E 24 35 13 19 1002.5 1000.5 0.0
15/08:00pm 30.4 24.0 0.9 15 14.7 E 24 37 13 20 1002.4 1000.4 0.0
15/07:30pm 30.8 24.8 1.2 15 14.8 E 22 37 12 20 1002.3 1000.3 0.0
15/07:00pm 31.6 25.4 -0.1 13 15.6 E 22 30 12 16 1002.3 1000.3 0.0
15/06:30pm 32.4 26.2 -0.6 12 16.1 E 22 30 12 16 1002.7 1000.7 0.0
15/06:00pm 32.7 26.9 -0.4 12 16.3 ENE 20 30 11 16 1003.0 1001.0 0.0
15/05:30pm 34.0 28.1 -0.6 11 17.1 ENE 20 30 11 16 1002.5 1000.5 0.0
15/05:00pm 34.3 28.5 -0.4 11 17.3 NE 20 30 11 16 1002.3 1000.3 0.0
15/04:30pm 34.3 28.6 -0.4 11 17.2 ENE 19 30 10 16 1002.1 1000.1 0.0
15/04:00pm 34.8 28.8 1.2 12 17.2 ENE 22 35 12 19 1002.1 1000.1 0.0
15/03:30pm 35.0 29.4 1.4 12 17.2 ENE 20 32 11 17 1002.5 1000.5 0.0
15/03:00pm 34.8 28.6 0.0 11 17.5 ENE 22 33 12 18 1003.0 1001.0 0.0
15/02:30pm 33.5 28.1 2.4 14 16.1 E 20 30 11 16 1003.5 1001.5 0.0
15/02:00pm 33.2 27.2 1.1 13 16.3 ENE 22 32 12 17 1003.8 1001.8 0.0
15/01:30pm 32.8 27.1 0.8 13 16.0 NE 20 32 11 17 1004.3 1002.3 0.0
15/01:00pm 31.1 26.4 3.2 17 14.5 ENE 17 26 9 14 1005.0 1003.0 0.0
15/12:30pm 31.1 25.6 4.0 18 14.2 ENE 22 35 12 19 1005.0 1003.0 0.0
15/12:00pm 31.5 26.5 3.5 17 14.6 NE 19 30 10 16 1006.5 1004.5 0.0
15/11:30am 30.3 25.1 3.4 18 13.9 NE 20 32 11 17 1007.0 1005.0 0.0
15/11:00am 29.9 25.2 5.2 21 13.1 NE 19 28 10 15 1007.8 1005.9 0.0
15/10:30am 28.3 23.4 5.2 23 12.1 NE 20 32 11 17 1008.4 1006.5 0.0
15/10:00am 27.3 22.7 5.6 25 11.4 NE 19 39 10 21 1009.1 1007.1 0.0
15/09:30am 25.6 20.8 5.8 28 10.4 NNE 20 28 11 15 1009.4 1007.4 0.0
15/09:00am 24.7 21.9 6.9 32 9.5 NNE 11 19 6 10 1010.0 1008.0 0.0
15/08:30am 22.1 18.8 6.3 36 8.2 NE 13 19 7 10 1010.3 1008.4 0.0
15/08:00am 20.4 16.8 6.7 41 7.1 NE 15 20 8 11 1010.4 1008.5 0.0
15/07:30am 19.6 15.9 6.4 42 6.7 ENE 15 28 8 15 1010.3 1008.4 0.0
15/07:00am 18.9 15.7 7.0 46 6.1 ENE 13 17 7 9 1010.9 1009.0 0.0
15/06:30am 18.7 14.7 6.5 45 6.2 NE 17 20 9 11 1011.3 1009.4 0.0
15/06:00am 18.5 15.3 6.7 46 6.0 NE 13 22 7 12 1011.1 1009.2 0.0
15/05:30am 18.4 14.8 6.6 46 6.0 E 15 22 8 12 1010.2 1008.3 0.0
15/05:00am 18.2 14.1 6.1 45 6.1 E 17 22 9 12 1009.9 1007.9 0.0
15/04:30am 18.5 13.8 5.0 41 6.6 ENE 19 32 10 17 1009.3 1007.3 0.0
15/04:00am 19.0 14.1 4.0 37 7.3 ENE 19 28 10 15 1009.1 1007.1 0.0
15/03:30am 19.7 14.6 4.2 36 7.6 ENE 20 30 11 16 1009.3 1007.3 0.0
15/03:00am 20.3 15.7 3.9 34 8.0 ENE 17 26 9 14 1009.3 1007.3 0.0
15/02:30am 20.8 15.3 4.0 33 8.2 ENE 22 33 12 18 1009.7 1007.7 0.0
15/02:00am 21.1 16.0 4.2 33 8.3 ENE 20 32 11 17 1009.9 1007.9 0.0
15/01:30am 21.5 16.4 4.1 32 8.6 ENE 20 30 11 16 1010.3 1008.4 0.0
15/01:00am 21.9 17.0 4.0 31 8.9 ENE 19 28 10 15 1010.5 1008.6 0.0
15/12:30am 22.2 17.0 3.3 29 9.2 ENE 20 32 11 17 1010.8 1008.9 0.0
15/12:00am 22.9 17.2 2.9 27 9.8 ENE 22 32 12 17 1010.6 1008.7 0.0
 
Date/Time
WST
Temp
°C
App
Temp
°C
Dew
Point
°C
Rel
Hum
%
Delta-T
°C
Wind Press
QNH
hPa
Press
MSL
hPa
Rain since
9am
mm
Dir  Spd
km/h
Gust
km/h
Spd
kts
Gust
kts
14/11:30pm 23.5 17.8 2.9 26 10.1 ENE 22 39 12 21 1010.8 1008.9 0.0
14/11:00pm 24.1 18.0 2.9 25 10.4 ENE 24 41 13 22 1011.2 1009.3 0.0
14/10:30pm 24.6 18.4 2.1 23 10.9 ENE 24 32 13 17 1011.3 1009.4 0.0
14/10:00pm 25.3 19.5 2.1 22 11.3 ENE 22 35 12 19 1011.3 1009.4 0.0
14/09:30pm 26.2 20.7 0.8 19 12.2 ENE 19 28 10 15 1011.3 1009.4 0.0
14/09:00pm 26.5 21.1 1.0 19 12.3 ENE 19 24 10 13 1011.2 1009.3 0.0
14/08:30pm 27.1 22.0 0.8 18 12.7 ENE 17 24 9 13 1011.1 1009.2 0.0
14/08:00pm 27.1 22.4 0.8 18 12.7 ENE 15 20 8 11 1011.0 1009.1 0.0
14/07:30pm 27.0 22.7 0.7 18 12.7 E 13 19 7 10 1011.0 1009.1 0.0
14/07:00pm 28.0 22.9 0.7 17 13.3 E 17 22 9 12 1010.9 1009.0 0.0
14/06:30pm 28.9 23.8 0.6 16 13.8 E 17 24 9 13 1010.7 1008.8 0.0

Other Formats:

Comma delimited format used in spreadsheet applications
http://www.bom.gov.au/fwo/IDW60801/IDW60801.94637.axf

JavaScript Object Notation format (JSON) in row-major order
http://www.bom.gov.au/fwo/IDW60801/IDW60801.94637.json